sensor_id;sensor_type;location;lat;lon;timestamp;pressure;altitude;pressure_sealevel;temperature;humidity
57056;BME280;42945;51.718;5.324;2022-10-31T00:01:08;101842.72;;;10.97;100.00
57056;BME280;42945;51.718;5.324;2022-10-31T00:06:37;101786.25;;;10.94;100.00
57056;BME280;42945;51.718;5.324;2022-10-31T00:12:06;101732.72;;;10.21;100.00
57056;BME280;42945;51.718;5.324;2022-10-31T00:17:35;101851.13;;;10.87;100.00
57056;BME280;42945;51.718;5.324;2022-10-31T00:23:04;101846.34;;;10.74;100.00
57056;BME280;42945;51.718;5.324;2022-10-31T00:28:33;101819.56;;;10.80;100.00
57056;BME280;42945;51.718;5.324;2022-10-31T00:34:02;101841.97;;;10.73;100.00
57056;BME280;42945;51.718;5.324;2022-10-31T00:39:33;101842.66;;;10.78;100.00
57056;BME280;42945;51.718;5.324;2022-10-31T00:45:02;101746.25;;;10.15;100.00
57056;BME280;42945;51.718;5.324;2022-10-31T00:50:30;101897.69;;;10.73;100.00
57056;BME280;42945;51.718;5.324;2022-10-31T00:55:59;101845.94;;;10.63;100.00
57056;BME280;42945;51.718;5.324;2022-10-31T01:01:29;101872.63;;;10.58;100.00
57056;BME280;42945;51.718;5.324;2022-10-31T01:06:58;101733.94;;;9.70;100.00
57056;BME280;42945;51.718;5.324;2022-10-31T01:12:27;101839.84;;;10.39;100.00
57056;BME280;42945;51.718;5.324;2022-10-31T01:17:55;101831.97;;;10.37;100.00
57056;BME280;42945;51.718;5.324;2022-10-31T01:23:25;101761.91;;;9.77;100.00
57056;BME280;42945;51.718;5.324;2022-10-31T01:28:55;101824.19;;;10.33;100.00
57056;BME280;42945;51.718;5.324;2022-10-31T01:34:25;101743.41;;;9.53;100.00
57056;BME280;42945;51.718;5.324;2022-10-31T01:39:53;101792.53;;;10.06;100.00
57056;BME280;42945;51.718;5.324;2022-10-31T01:45:21;101830.94;;;9.96;100.00
57056;BME280;42945;51.718;5.324;2022-10-31T01:50:50;101858.91;;;9.81;100.00
57056;BME280;42945;51.718;5.324;2022-10-31T01:56:20;101847.09;;;9.66;100.00
57056;BME280;42945;51.718;5.324;2022-10-31T02:01:50;101817.72;;;9.72;100.00
57056;BME280;42945;51.718;5.324;2022-10-31T02:07:21;101733.94;;;9.00;100.00
57056;BME280;42945;51.718;5.324;2022-10-31T02:12:53;101739.34;;;8.72;100.00
57056;BME280;42945;51.718;5.324;2022-10-31T02:18:24;101833.19;;;9.36;100.00
57056;BME280;42945;51.718;5.324;2022-10-31T02:35:08;101723.47;;;8.47;100.00
57056;BME280;42945;51.718;5.324;2022-10-31T02:40:40;101690.75;;;8.24;100.00
57056;BME280;42945;51.718;5.324;2022-10-31T02:46:19;101862.44;;;9.07;100.00
57056;BME280;42945;51.718;5.324;2022-10-31T02:51:51;101810.94;;;8.93;100.00
57056;BME280;42945;51.718;5.324;2022-10-31T02:57:24;101821.81;;;8.83;100.00
57056;BME280;42945;51.718;5.324;2022-10-31T03:14:04;101730.22;;;8.02;100.00
57056;BME280;42945;51.718;5.324;2022-10-31T03:19:38;101748.81;;;7.99;100.00
57056;BME280;42945;51.718;5.324;2022-10-31T03:25:07;101748.63;;;8.05;100.00
57056;BME280;42945;51.718;5.324;2022-10-31T03:30:36;101713.44;;;7.77;100.00
57056;BME280;42945;51.718;5.324;2022-10-31T03:36:07;101849.63;;;8.43;100.00
57056;BME280;42945;51.718;5.324;2022-10-31T03:41:38;101825.75;;;8.45;100.00
57056;BME280;42945;51.718;5.324;2022-10-31T03:47:09;101816.53;;;8.30;100.00
57056;BME280;42945;51.718;5.324;2022-10-31T03:52:43;101839.75;;;8.20;100.00
57056;BME280;42945;51.718;5.324;2022-10-31T03:58:18;101826.81;;;8.11;100.00
57056;BME280;42945;51.718;5.324;2022-10-31T04:03:51;101678.25;;;7.48;100.00
57056;BME280;42945;51.718;5.324;2022-10-31T04:09:20;101785.03;;;8.24;100.00
57056;BME280;42945;51.718;5.324;2022-10-31T04:14:49;101815.19;;;8.17;100.00
57056;BME280;42945;51.718;5.324;2022-10-31T04:20:28;101839.34;;;8.04;100.00
57056;BME280;42945;51.718;5.324;2022-10-31T04:25:58;101852.97;;;8.20;100.00
57056;BME280;42945;51.718;5.324;2022-10-31T04:31:26;101790.81;;;8.08;100.00
57056;BME280;42945;51.718;5.324;2022-10-31T04:36:55;101813.66;;;8.38;100.00
57056;BME280;42945;51.718;5.324;2022-10-31T04:42:23;101820.28;;;8.23;100.00
57056;BME280;42945;51.718;5.324;2022-10-31T04:47:52;101809.25;;;8.37;100.00
57056;BME280;42945;51.718;5.324;2022-10-31T04:53:21;101676.34;;;7.81;100.00
57056;BME280;42945;51.718;5.324;2022-10-31T04:58:49;101800.38;;;8.66;100.00
57056;BME280;42945;51.718;5.324;2022-10-31T05:04:17;101699.41;;;8.03;100.00
57056;BME280;42945;51.718;5.324;2022-10-31T05:09:46;101701.38;;;7.96;100.00
57056;BME280;42945;51.718;5.324;2022-10-31T05:15:14;101825.25;;;8.60;100.00
57056;BME280;42945;51.718;5.324;2022-10-31T05:20:43;101797.66;;;8.69;100.00
57056;BME280;42945;51.718;5.324;2022-10-31T05:26:11;101689.75;;;8.02;100.00
57056;BME280;42945;51.718;5.324;2022-10-31T05:31:40;101655.13;;;8.09;100.00
57056;BME280;42945;51.718;5.324;2022-10-31T05:37:09;101794.44;;;8.59;100.00
57056;BME280;42945;51.718;5.324;2022-10-31T05:42:40;101629.03;;;8.00;100.00
57056;BME280;42945;51.718;5.324;2022-10-31T05:48:12;101769.72;;;8.60;100.00
57056;BME280;42945;51.718;5.324;2022-10-31T05:53:41;101728.38;;;8.04;100.00
57056;BME280;42945;51.718;5.324;2022-10-31T05:59:09;101831.84;;;8.74;100.00
57056;BME280;42945;51.718;5.324;2022-10-31T06:04:37;101668.72;;;7.99;100.00
57056;BME280;42945;51.718;5.324;2022-10-31T06:10:06;101700.09;;;8.08;100.00
57056;BME280;42945;51.718;5.324;2022-10-31T06:15:35;101661.34;;;8.08;100.00
57056;BME280;42945;51.718;5.324;2022-10-31T06:21:03;101801.66;;;8.81;100.00
57056;BME280;42945;51.718;5.324;2022-10-31T06:26:32;101674.75;;;8.02;100.00
57056;BME280;42945;51.718;5.324;2022-10-31T06:32:00;101679.34;;;7.97;100.00
57056;BME280;42945;51.718;5.324;2022-10-31T06:37:29;101817.00;;;8.70;100.00
57056;BME280;42945;51.718;5.324;2022-10-31T06:43:03;101810.28;;;8.61;100.00
57056;BME280;42945;51.718;5.324;2022-10-31T06:48:33;101717.00;;;8.02;100.00
57056;BME280;42945;51.718;5.324;2022-10-31T06:54:02;101822.75;;;8.82;100.00
57056;BME280;42945;51.718;5.324;2022-10-31T06:59:31;101835.00;;;8.85;100.00
57056;BME280;42945;51.718;5.324;2022-10-31T07:05:00;101794.97;;;8.96;100.00
57056;BME280;42945;51.718;5.324;2022-10-31T07:10:30;101730.25;;;9.04;100.00
57056;BME280;42945;51.718;5.324;2022-10-31T07:16:00;101805.94;;;9.09;100.00
57056;BME280;42945;51.718;5.324;2022-10-31T07:27:36;101797.06;;;9.35;100.00
57056;BME280;42945;51.718;5.324;2022-10-31T07:33:06;101673.22;;;8.72;100.00
57056;BME280;42945;51.718;5.324;2022-10-31T07:38:34;101800.47;;;9.62;100.00
57056;BME280;42945;51.718;5.324;2022-10-31T07:44:03;101837.97;;;9.97;100.00
57056;BME280;42945;51.718;5.324;2022-10-31T07:49:32;101735.69;;;10.13;100.00
57056;BME280;42945;51.718;5.324;2022-10-31T07:55:01;101819.53;;;10.60;100.00
57056;BME280;42945;51.718;5.324;2022-10-31T08:00:31;101842.91;;;10.72;100.00
57056;BME280;42945;51.718;5.324;2022-10-31T08:06:01;101642.59;;;10.21;100.00
57056;BME280;42945;51.718;5.324;2022-10-31T08:11:29;101775.47;;;11.17;100.00
57056;BME280;42945;51.718;5.324;2022-10-31T08:16:58;101817.66;;;11.44;100.00
57056;BME280;42945;51.718;5.324;2022-10-31T08:22:26;101619.59;;;11.00;100.00
57056;BME280;42945;51.718;5.324;2022-10-31T08:27:55;101829.66;;;12.10;100.00
57056;BME280;42945;51.718;5.324;2022-10-31T08:33:25;101646.41;;;11.51;100.00
57056;BME280;42945;51.718;5.324;2022-10-31T08:38:54;101748.66;;;12.34;100.00
57056;BME280;42945;51.718;5.324;2022-10-31T08:44:23;101825.50;;;12.58;100.00
57056;BME280;42945;51.718;5.324;2022-10-31T08:49:52;101783.31;;;12.33;100.00
57056;BME280;42945;51.718;5.324;2022-10-31T08:55:22;101799.97;;;12.89;100.00
57056;BME280;42945;51.718;5.324;2022-10-31T09:00:52;101780.75;;;12.66;100.00
57056;BME280;42945;51.718;5.324;2022-10-31T09:06:21;101569.38;;;12.04;100.00
57056;BME280;42945;51.718;5.324;2022-10-31T09:11:50;101699.44;;;12.08;100.00
57056;BME280;42945;51.718;5.324;2022-10-31T09:17:19;101664.00;;;12.08;100.00
57056;BME280;42945;51.718;5.324;2022-10-31T09:22:54;101753.06;;;13.04;100.00
57056;BME280;42945;51.718;5.324;2022-10-31T09:28:25;101643.56;;;12.60;100.00
57056;BME280;42945;51.718;5.324;2022-10-31T09:33:54;101698.69;;;13.24;100.00
57056;BME280;42945;51.718;5.324;2022-10-31T09:39:23;101747.28;;;13.29;100.00
57056;BME280;42945;51.718;5.324;2022-10-31T09:45:02;101721.72;;;13.42;100.00
57056;BME280;42945;51.718;5.324;2022-10-31T09:50:37;101553.28;;;12.89;100.00
57056;BME280;42945;51.718;5.324;2022-10-31T09:56:09;101580.25;;;13.31;100.00
57056;BME280;42945;51.718;5.324;2022-10-31T10:01:43;101583.56;;;13.03;100.00
57056;BME280;42945;51.718;5.324;2022-10-31T10:07:20;101706.75;;;13.71;100.00
57056;BME280;42945;51.718;5.324;2022-10-31T10:30:32;101662.91;;;13.61;100.00
57056;BME280;42945;51.718;5.324;2022-10-31T10:41:41;101629.19;;;13.60;100.00
57056;BME280;42945;51.718;5.324;2022-10-31T10:47:12;101629.97;;;13.92;100.00
57056;BME280;42945;51.718;5.324;2022-10-31T10:58:49;101708.44;;;14.49;100.00
57056;BME280;42945;51.718;5.324;2022-10-31T11:04:33;101544.41;;;13.67;100.00
57056;BME280;42945;51.718;5.324;2022-10-31T11:10:04;101658.31;;;14.54;100.00
57056;BME280;42945;51.718;5.324;2022-10-31T11:21:33;101646.06;;;14.66;100.00
57056;BME280;42945;51.718;5.324;2022-10-31T11:27:26;101526.13;;;14.90;100.00
57056;BME280;42945;51.718;5.324;2022-10-31T11:33:17;101577.75;;;15.18;100.00
57056;BME280;42945;51.718;5.324;2022-10-31T11:38:46;101459.25;;;14.64;100.00
57056;BME280;42945;51.718;5.324;2022-10-31T11:44:23;101517.47;;;15.13;100.00
57056;BME280;42945;51.718;5.324;2022-10-31T11:49:53;101435.94;;;14.39;100.00
57056;BME280;42945;51.718;5.324;2022-10-31T11:55:31;101490.13;;;15.23;100.00
57056;BME280;42945;51.718;5.324;2022-10-31T12:01:00;101534.53;;;15.38;100.00
57056;BME280;42945;51.718;5.324;2022-10-31T12:06:34;101137.34;;;15.48;100.00
57056;BME280;42945;51.718;5.324;2022-10-31T12:12:22;101481.03;;;15.65;98.78
57056;BME280;42945;51.718;5.324;2022-10-31T12:29:28;101410.22;;;15.71;96.64
57056;BME280;42945;51.718;5.324;2022-10-31T12:57:29;101401.88;;;15.88;94.80
57056;BME280;42945;51.718;5.324;2022-10-31T13:03:17;101346.47;;;15.90;94.28
57056;BME280;42945;51.718;5.324;2022-10-31T13:08:55;101249.31;;;15.40;93.65
57056;BME280;42945;51.718;5.324;2022-10-31T13:14:35;101321.47;;;16.03;94.12
57056;BME280;42945;51.718;5.324;2022-10-31T13:25:42;101195.84;;;15.53;92.87
57056;BME280;42945;51.718;5.324;2022-10-31T13:31:13;101293.31;;;16.34;92.37
57056;BME280;42945;51.718;5.324;2022-10-31T13:36:45;101278.00;;;16.12;93.13
57056;BME280;42945;51.718;5.324;2022-10-31T14:05:43;101256.72;;;15.86;94.48
57056;BME280;42945;51.718;5.324;2022-10-31T14:10:46;101235.88;;;15.66;93.21
57056;BME280;42945;51.718;5.324;2022-10-31T14:16:26;101080.53;;;14.96;92.25
57056;BME280;42945;51.718;5.324;2022-10-31T14:21:56;101185.41;;;15.61;91.80
57056;BME280;42945;51.718;5.324;2022-10-31T14:32:57;101194.00;;;15.53;91.31
57056;BME280;42945;51.718;5.324;2022-10-31T14:38:33;101194.69;;;15.31;90.75
57056;BME280;42945;51.718;5.324;2022-10-31T14:55:35;101153.91;;;15.16;90.76
57056;BME280;42945;51.718;5.324;2022-10-31T15:01:27;101032.47;;;14.47;91.56
57056;BME280;42945;51.718;5.324;2022-10-31T15:07:15;101155.31;;;15.09;92.10
57056;BME280;42945;51.718;5.324;2022-10-31T15:12:45;100997.97;;;14.44;91.45
57056;BME280;42945;51.718;5.324;2022-10-31T15:18:26;101008.34;;;14.35;92.51
57056;BME280;42945;51.718;5.324;2022-10-31T15:23:56;101125.47;;;15.15;92.70
57056;BME280;42945;51.718;5.324;2022-10-31T15:29:29;100987.84;;;14.49;92.45
57056;BME280;42945;51.718;5.324;2022-10-31T15:34:58;101033.06;;;14.89;94.28
57056;BME280;42945;51.718;5.324;2022-10-31T15:40:28;101051.78;;;14.63;93.46
57056;BME280;42945;51.718;5.324;2022-10-31T15:45:56;101103.00;;;14.55;95.01
57056;BME280;42945;51.718;5.324;2022-10-31T15:51:30;101069.41;;;14.14;95.28
57056;BME280;42945;51.718;5.324;2022-10-31T15:57:01;100913.13;;;13.35;95.69
57056;BME280;42945;51.718;5.324;2022-10-31T16:08:45;101071.66;;;13.68;99.98
57056;BME280;42945;51.718;5.324;2022-10-31T16:14:17;100937.13;;;12.80;100.00
57056;BME280;42945;51.718;5.324;2022-10-31T16:19:48;101063.81;;;13.25;100.00
57056;BME280;42945;51.718;5.324;2022-10-31T16:25:34;100933.69;;;12.51;100.00
57056;BME280;42945;51.718;5.324;2022-10-31T16:31:12;101067.97;;;13.02;100.00
57056;BME280;42945;51.718;5.324;2022-10-31T16:36:41;101016.41;;;13.03;100.00
57056;BME280;42945;51.718;5.324;2022-10-31T16:42:10;101017.63;;;12.84;100.00
57056;BME280;42945;51.718;5.324;2022-10-31T16:47:38;101017.94;;;12.79;100.00
57056;BME280;42945;51.718;5.324;2022-10-31T16:53:06;100917.13;;;11.90;100.00
57056;BME280;42945;51.718;5.324;2022-10-31T16:58:35;101032.22;;;12.64;100.00
57056;BME280;42945;51.718;5.324;2022-10-31T17:04:04;100907.75;;;11.99;100.00
57056;BME280;42945;51.718;5.324;2022-10-31T17:09:32;100958.97;;;12.44;100.00
57056;BME280;42945;51.718;5.324;2022-10-31T17:15:00;101017.22;;;12.49;100.00
57056;BME280;42945;51.718;5.324;2022-10-31T17:20:38;100957.56;;;12.24;100.00
57056;BME280;42945;51.718;5.324;2022-10-31T17:31:57;101013.88;;;12.31;100.00
57056;BME280;42945;51.718;5.324;2022-10-31T17:37:27;100970.13;;;12.22;100.00
57056;BME280;42945;51.718;5.324;2022-10-31T17:42:56;100965.72;;;12.21;100.00
57056;BME280;42945;51.718;5.324;2022-10-31T17:48:25;100953.88;;;12.12;100.00
57056;BME280;42945;51.718;5.324;2022-10-31T17:53:54;100932.53;;;12.14;100.00
57056;BME280;42945;51.718;5.324;2022-10-31T17:59:26;100973.16;;;12.16;100.00
57056;BME280;42945;51.718;5.324;2022-10-31T18:04:57;100974.69;;;12.20;100.00
57056;BME280;42945;51.718;5.324;2022-10-31T18:10:29;100953.31;;;12.07;100.00
57056;BME280;42945;51.718;5.324;2022-10-31T18:15:57;100956.44;;;11.99;100.00
57056;BME280;42945;51.718;5.324;2022-10-31T18:21:26;100932.06;;;11.93;100.00
57056;BME280;42945;51.718;5.324;2022-10-31T18:26:56;100889.88;;;11.72;100.00
57056;BME280;42945;51.718;5.324;2022-10-31T18:32:25;100936.63;;;11.91;100.00
57056;BME280;42945;51.718;5.324;2022-10-31T18:37:53;100837.06;;;11.09;100.00
57056;BME280;42945;51.718;5.324;2022-10-31T18:43:22;100954.53;;;12.01;100.00
57056;BME280;42945;51.718;5.324;2022-10-31T18:48:50;100931.97;;;11.94;100.00
57056;BME280;42945;51.718;5.324;2022-10-31T18:54:18;100903.56;;;11.95;100.00
57056;BME280;42945;51.718;5.324;2022-10-31T18:59:51;100957.16;;;11.87;100.00
57056;BME280;42945;51.718;5.324;2022-10-31T19:05:22;100920.75;;;11.89;100.00
57056;BME280;42945;51.718;5.324;2022-10-31T19:10:51;100937.28;;;11.94;100.00
57056;BME280;42945;51.718;5.324;2022-10-31T19:16:20;100784.69;;;11.27;100.00
57056;BME280;42945;51.718;5.324;2022-10-31T19:21:49;100770.34;;;11.29;100.00
57056;BME280;42945;51.718;5.324;2022-10-31T19:27:18;100912.16;;;11.84;100.00
57056;BME280;42945;51.718;5.324;2022-10-31T19:32:47;100808.06;;;11.20;100.00
57056;BME280;42945;51.718;5.324;2022-10-31T19:38:16;100909.16;;;11.90;100.00
57056;BME280;42945;51.718;5.324;2022-10-31T19:43:46;100883.47;;;11.91;100.00
57056;BME280;42945;51.718;5.324;2022-10-31T19:49:18;100893.22;;;11.90;100.00
57056;BME280;42945;51.718;5.324;2022-10-31T19:54:46;100763.63;;;11.23;100.00
57056;BME280;42945;51.718;5.324;2022-10-31T20:00:16;100909.50;;;11.84;100.00
57056;BME280;42945;51.718;5.324;2022-10-31T20:05:45;100872.31;;;11.84;0.00
57056;BME280;42945;51.718;5.324;2022-10-31T20:11:13;100736.50;;;11.18;100.00
57056;BME280;42945;51.718;5.324;2022-10-31T20:16:43;100737.84;;;11.11;100.00
57056;BME280;42945;51.718;5.324;2022-10-31T20:22:12;100871.47;;;11.83;100.00
57056;BME280;42945;51.718;5.324;2022-10-31T20:27:41;100749.00;;;11.02;100.00
57056;BME280;42945;51.718;5.324;2022-10-31T20:33:13;100845.66;;;11.86;100.00
57056;BME280;42945;51.718;5.324;2022-10-31T20:38:42;100786.53;;;11.96;100.00
57056;BME280;42945;51.718;5.324;2022-10-31T20:44:10;100831.31;;;11.88;100.00
57056;BME280;42945;51.718;5.324;2022-10-31T20:49:39;100845.19;;;11.93;100.00
57056;BME280;42945;51.718;5.324;2022-10-31T20:55:08;100718.41;;;11.25;99.48
57056;BME280;42945;51.718;5.324;2022-10-31T21:00:36;100687.47;;;11.24;100.00
57056;BME280;42945;51.718;5.324;2022-10-31T21:06:05;100786.72;;;11.93;100.00
57056;BME280;42945;51.718;5.324;2022-10-31T21:11:34;100827.56;;;11.92;99.58
57056;BME280;42945;51.718;5.324;2022-10-31T21:17:03;100764.91;;;11.74;100.00
57056;BME280;42945;51.718;5.324;2022-10-31T21:22:33;100770.41;;;11.85;99.12
57056;BME280;42945;51.718;5.324;2022-10-31T21:28:02;100777.84;;;11.66;98.21
57056;BME280;42945;51.718;5.324;2022-10-31T21:33:31;100796.78;;;11.74;99.38
57056;BME280;42945;51.718;5.324;2022-10-31T21:39:00;100728.56;;;11.74;99.85
57056;BME280;42945;51.718;5.324;2022-10-31T21:44:28;100660.28;;;11.20;97.79
57056;BME280;42945;51.718;5.324;2022-10-31T21:49:56;100762.38;;;12.14;97.88
57056;BME280;42945;51.718;5.324;2022-10-31T21:55:25;100735.97;;;12.11;96.89
57056;BME280;42945;51.718;5.324;2022-10-31T22:00:59;100727.75;;;12.28;95.35
57056;BME280;42945;51.718;5.324;2022-10-31T22:06:27;100738.00;;;12.47;95.12
57056;BME280;42945;51.718;5.324;2022-10-31T22:11:58;100762.69;;;12.49;93.73
57056;BME280;42945;51.718;5.324;2022-10-31T22:17:28;100678.66;;;12.47;94.63
57056;BME280;42945;51.718;5.324;2022-10-31T22:22:57;100680.22;;;12.49;93.43
57056;BME280;42945;51.718;5.324;2022-10-31T22:28:27;100733.66;;;12.59;94.68
57056;BME280;42945;51.718;5.324;2022-10-31T22:33:56;100689.59;;;12.55;94.06
57056;BME280;42945;51.718;5.324;2022-10-31T22:39:25;100705.56;;;12.68;94.88
57056;BME280;42945;51.718;5.324;2022-10-31T22:44:53;100718.47;;;12.74;96.16
57056;BME280;42945;51.718;5.324;2022-10-31T22:50:22;100582.41;;;12.01;0.00
57056;BME280;42945;51.718;5.324;2022-10-31T22:55:50;100575.94;;;12.06;95.53
57056;BME280;42945;51.718;5.324;2022-10-31T23:01:20;100553.84;;;12.18;95.24
57056;BME280;42945;51.718;5.324;2022-10-31T23:06:49;100634.56;;;12.94;95.45
57056;BME280;42945;51.718;5.324;2022-10-31T23:12:18;100637.44;;;13.04;94.31
57056;BME280;42945;51.718;5.324;2022-10-31T23:21:31;100589.78;;;12.36;96.61
57056;BME280;42945;51.718;5.324;2022-10-31T23:27:20;100598.88;;;13.09;97.54
57056;BME280;42945;51.718;5.324;2022-10-31T23:32:50;100625.13;;;13.27;97.16
57056;BME280;42945;51.718;5.324;2022-10-31T23:38:19;100607.88;;;13.19;97.00
57056;BME280;42945;51.718;5.324;2022-10-31T23:43:47;100441.13;;;12.57;97.59
57056;BME280;42945;51.718;5.324;2022-10-31T23:49:16;100612.03;;;13.36;97.25
57056;BME280;42945;51.718;5.324;2022-10-31T23:54:44;100602.31;;;13.35;96.51
